createdAt,value
2017-06-02T00:00:20.070Z,24.96
2017-06-02T00:02:44.459Z,25.01
2017-06-02T00:05:08.848Z,25.21
2017-06-02T00:07:33.237Z,25.22
2017-06-02T00:09:57.631Z,24.94
2017-06-02T00:12:07.624Z,25.16
2017-06-02T00:14:23.571Z,25.03
2017-06-02T00:16:47.963Z,25.14
2017-06-02T00:19:03.850Z,25.12
2017-06-02T00:21:28.238Z,25.03
2017-06-02T00:23:44.127Z,25.12
2017-06-02T00:26:08.514Z,25.01
2017-06-02T00:28:32.905Z,24.97
2017-06-02T00:30:57.292Z,24.66
2017-06-02T00:33:21.683Z,24.66
2017-06-02T00:35:46.077Z,24.66
2017-06-02T00:38:10.464Z,24.44
2017-06-02T00:40:34.850Z,24.59
2017-06-02T00:42:59.238Z,24.69
2017-06-02T00:45:15.239Z,24.61
2017-06-02T00:47:39.612Z,24.43
2017-06-02T00:49:55.515Z,24.5
2017-06-02T00:52:19.902Z,24.48
2017-06-02T00:54:44.291Z,24.32
2017-06-02T00:57:08.578Z,24.22
2017-06-02T00:59:32.970Z,24.25
2017-06-02T01:01:57.354Z,24.14
2017-06-02T01:04:21.744Z,24.47
2017-06-02T01:06:46.135Z,24.44
2017-06-02T01:09:10.422Z,24.46
2017-06-02T01:11:34.809Z,24.41
2017-06-02T01:13:59.097Z,24.61
2017-06-02T01:15:52.058Z,24.58
2017-06-02T01:18:16.439Z,24.4
2017-06-02T01:20:40.823Z,24.46
2017-06-02T01:23:05.215Z,24.19
2017-06-02T01:25:29.610Z,24.34
2017-06-02T01:27:53.993Z,24.55
2017-06-02T01:30:18.294Z,24.63
2017-06-02T01:32:42.666Z,24.85
2017-06-02T01:35:07.077Z,25.04
2017-06-02T01:37:31.451Z,24.86
2017-06-02T01:39:55.836Z,24.69
2017-06-02T01:42:20.222Z,25.01
2017-06-02T01:44:36.115Z,25.07
2017-06-02T01:47:00.503Z,25.15
2017-06-02T01:49:24.890Z,24.93
2017-06-02T01:51:49.281Z,25.03
2017-06-02T01:54:13.674Z,25.03
2017-06-02T01:56:38.062Z,24.97
2017-06-02T01:59:02.449Z,24.89
2017-06-02T02:01:26.841Z,24.99
2017-06-02T02:03:42.734Z,25.11
2017-06-02T02:06:07.122Z,25.01
2017-06-02T02:08:31.510Z,24.92
2017-06-02T02:10:55.898Z,24.86
2017-06-02T02:13:20.286Z,25
2017-06-02T02:15:44.676Z,25.11
2017-06-02T02:18:09.065Z,25.07
2017-06-02T02:20:19.050Z,24.96
2017-06-02T02:22:43.406Z,24.66
2017-06-02T02:24:59.290Z,24.65
2017-06-02T02:27:15.186Z,24.48
2017-06-02T02:29:39.572Z,24.48
2017-06-02T02:32:03.962Z,24.47
2017-06-02T02:34:28.348Z,24.51
2017-06-02T02:36:52.742Z,24.71
2017-06-02T02:39:17.134Z,24.61
2017-06-02T02:41:41.517Z,24.18
2017-06-02T02:44:05.914Z,24.09
2017-06-02T02:46:30.299Z,23.91
2017-06-02T02:48:54.688Z,23.95
2017-06-02T02:51:19.078Z,24.03
2017-06-02T02:53:34.972Z,23.96
2017-06-02T02:55:59.348Z,23.88
2017-06-02T02:58:23.651Z,23.54
2017-06-02T03:00:48.030Z,23.34
2017-06-02T03:03:03.923Z,23.14
2017-06-02T03:05:28.208Z,22.81
2017-06-02T03:07:29.622Z,22.67
2017-06-02T03:09:53.944Z,22.8
2017-06-02T03:12:19.152Z,22.81
2017-06-02T03:14:43.442Z,23.08
2017-06-02T03:17:07.725Z,22.89
2017-06-02T03:19:32.016Z,23.06
2017-06-02T03:21:47.802Z,23.18
2017-06-02T03:24:12.087Z,23.16
2017-06-02T03:26:36.375Z,23.4
2017-06-02T03:29:00.662Z,23.62
2017-06-02T03:31:24.950Z,23.42
2017-06-02T03:33:49.236Z,23.71
2017-06-02T03:36:13.523Z,23.94
2017-06-02T03:38:37.813Z,23.81
2017-06-02T03:41:02.105Z,23.92
2017-06-02T03:43:26.325Z,23.91
2017-06-02T03:45:50.567Z,23.77
2017-06-02T03:48:14.855Z,24.06
2017-06-02T03:50:39.139Z,23.73
2017-06-02T03:53:03.426Z,23.79
2017-06-02T03:55:27.714Z,23.88
2017-06-02T03:57:52.000Z,23.99
2017-06-02T04:00:16.393Z,24.04
2017-06-02T04:02:40.675Z,24.25
2017-06-02T04:04:42.101Z,24.63
2017-06-02T04:07:06.412Z,24.79
2017-06-02T04:09:30.703Z,24.81
2017-06-02T04:11:55.090Z,24.26
2017-06-02T04:13:56.505Z,24.31
2017-06-02T04:16:20.829Z,24.1
2017-06-02T04:18:36.718Z,24.46
2017-06-02T04:20:38.718Z,24.61
2017-06-02T04:23:03.070Z,25.16
2017-06-02T04:25:27.459Z,26.6
2017-06-02T04:27:43.451Z,28.27
2017-06-02T04:30:07.944Z,29.76
2017-06-02T04:32:32.537Z,30.23
2017-06-02T04:34:34.060Z,31.63
2017-06-02T04:36:58.893Z,32.09
2017-06-02T04:39:23.789Z,34.07
2017-06-02T04:41:48.896Z,34.47
2017-06-02T04:43:57.004Z,35.9
2017-06-02T04:46:22.324Z,36.45
2017-06-02T04:48:47.725Z,38.29
2017-06-02T04:51:13.161Z,39.85
2017-06-02T04:53:38.647Z,40.73
2017-06-02T04:56:04.379Z,41.39
2017-06-02T04:58:30.098Z,40.9
2017-06-02T05:00:55.916Z,42.58
2017-06-02T05:03:21.844Z,41.81
2017-06-02T05:05:47.864Z,43.82
2017-06-02T05:07:56.902Z,43.77
2017-06-02T05:10:23.138Z,42.51
2017-06-02T05:12:49.369Z,43.51
2017-06-02T05:15:15.596Z,41.81
2017-06-02T05:17:41.729Z,38.39
2017-06-02T05:20:07.759Z,37.4
2017-06-02T05:22:34.711Z,35.18
2017-06-02T05:25:00.533Z,33.79
2017-06-02T05:27:26.106Z,35.91
2017-06-02T05:29:51.686Z,37
2017-06-02T05:32:17.314Z,38.92
2017-06-02T05:34:43.950Z,41.42
2017-06-02T05:37:09.693Z,40.28
2017-06-02T05:39:35.431Z,42.12
2017-06-02T05:42:01.291Z,44.96
2017-06-02T05:44:27.299Z,45.52
2017-06-02T05:46:53.435Z,44.48
2017-06-02T05:49:11.074Z,41.84
2017-06-02T05:51:37.206Z,39.91
2017-06-02T05:53:54.683Z,39.82
2017-06-02T05:56:20.586Z,39.2
2017-06-02T05:58:46.497Z,36.32
2017-06-02T06:01:03.726Z,35.78
2017-06-02T06:03:29.395Z,37.04
2017-06-02T06:05:31.673Z,38.22
2017-06-02T06:07:57.347Z,39.29
2017-06-02T06:10:22.966Z,41.63
2017-06-02T06:12:48.715Z,42.32
2017-06-02T06:15:14.518Z,43.51
2017-06-02T06:17:40.439Z,44.41
2017-06-02T06:19:57.853Z,42.74
2017-06-02T06:22:15.309Z,42.87
2017-06-02T06:24:32.758Z,42.62
2017-06-02T06:26:58.756Z,41.46
2017-06-02T06:29:24.719Z,39.97
2017-06-02T06:31:50.653Z,39.27
2017-06-02T06:34:16.498Z,38.46
2017-06-02T06:36:18.311Z,37.28
2017-06-02T06:38:44.111Z,37.31
2017-06-02T06:41:09.779Z,37.19
2017-06-02T06:43:26.843Z,36.54
2017-06-02T06:45:52.432Z,36.55
2017-06-02T06:48:18.024Z,36.78
2017-06-02T06:50:43.693Z,36.03
2017-06-02T06:53:00.796Z,36.06
2017-06-02T06:55:26.349Z,35.44
2017-06-02T06:57:43.310Z,34.41
2017-06-02T07:00:08.783Z,33.48
2017-06-02T07:02:25.618Z,33.23
2017-06-02T07:04:50.916Z,32.02
2017-06-02T07:07:16.117Z,32.3
2017-06-02T07:09:41.271Z,31.92
2017-06-02T07:12:07.425Z,31.87
2017-06-02T07:14:32.577Z,31.41
2017-06-02T07:16:49.115Z,31.17
2017-06-02T07:18:59.812Z,30.92
2017-06-02T07:21:16.380Z,31.79
2017-06-02T07:23:41.388Z,31.1
2017-06-02T07:26:06.308Z,31.23
2017-06-02T07:28:31.253Z,30.56
2017-06-02T07:30:56.184Z,30.31
2017-06-02T07:33:07.881Z,29.86
2017-06-02T07:35:32.781Z,29.22
2017-06-02T07:37:57.707Z,29.64
2017-06-02T07:39:59.781Z,29.62
2017-06-02T07:42:24.672Z,29.79
2017-06-02T07:44:49.558Z,29.64
2017-06-02T07:46:51.637Z,29.49
2017-06-02T07:49:16.535Z,30.06
2017-06-02T07:51:41.386Z,30.96
2017-06-02T07:54:06.296Z,32.29
2017-06-02T07:56:31.265Z,32.27
2017-06-02T07:58:56.257Z,32.27
2017-06-02T08:01:21.199Z,31.59
2017-06-02T08:03:37.741Z,32.48
2017-06-02T08:06:02.820Z,32.88
2017-06-02T08:08:27.928Z,32.67
2017-06-02T08:10:53.048Z,32.07
2017-06-02T08:13:18.166Z,32.42
2017-06-02T08:15:26.253Z,31.64
2017-06-02T08:17:28.383Z,32.04
2017-06-02T08:19:53.498Z,31.14
2017-06-02T08:22:10.039Z,31.74
2017-06-02T08:24:35.090Z,32.01
2017-06-02T08:27:00.137Z,32.02
2017-06-02T08:29:25.188Z,31.23
2017-06-02T08:31:50.212Z,31.92
2017-06-02T08:34:15.259Z,31.55
2017-06-02T08:36:40.284Z,31.59
2017-06-02T08:39:05.301Z,32.45
2017-06-02T08:41:30.327Z,32.19
2017-06-02T08:43:55.368Z,32.17
2017-06-02T08:46:21.376Z,31.42
2017-06-02T08:48:37.919Z,31.11
2017-06-02T08:51:02.905Z,32.41
2017-06-02T08:53:27.875Z,32.93
2017-06-02T08:55:44.434Z,33.42
2017-06-02T08:58:09.533Z,34.21
2017-06-02T09:00:34.682Z,34.19
2017-06-02T09:02:59.857Z,34.13
2017-06-02T09:05:24.934Z,34.02
2017-06-02T09:07:50.136Z,34.31
2017-06-02T09:10:15.343Z,34.4
2017-06-02T09:12:25.602Z,35.3
2017-06-02T09:14:50.917Z,34.43
2017-06-02T09:17:16.235Z,34.26
2017-06-02T09:19:41.527Z,35.42
2017-06-02T09:22:06.832Z,36.28
2017-06-02T09:24:32.207Z,36.88
2017-06-02T09:26:57.580Z,36.36
2017-06-02T09:29:22.965Z,37.07
2017-06-02T09:31:48.390Z,38.14
2017-06-02T09:34:13.989Z,38.69
2017-06-02T09:36:39.552Z,39.51
2017-06-02T09:39:05.116Z,37.9
2017-06-02T09:40:41.533Z,37.88
2017-06-02T09:42:52.442Z,38.19
2017-06-02T09:45:18.121Z,37.11
2017-06-02T09:47:43.772Z,37.66
2017-06-02T09:50:09.358Z,38.07
2017-06-02T09:52:35.971Z,37.85
2017-06-02T09:55:01.571Z,38.53
2017-06-02T09:57:28.125Z,37.73
2017-06-02T09:59:53.739Z,38.73
2017-06-02T10:02:20.385Z,38.46
2017-06-02T10:04:38.532Z,38.98
2017-06-02T10:07:04.601Z,36.92
2017-06-02T10:09:29.713Z,37.21
2017-06-02T10:11:55.369Z,37.68
2017-06-02T10:14:21.022Z,36.92
2017-06-02T10:16:46.704Z,37.18
2017-06-02T10:19:12.242Z,37.11
2017-06-02T10:21:37.925Z,37.88
2017-06-02T10:23:55.998Z,37.14
2017-06-02T10:26:21.587Z,37.21
2017-06-02T10:28:32.433Z,35.31
2017-06-02T10:30:58.061Z,35.68
2017-06-02T10:33:06.557Z,36.43
2017-06-02T10:35:32.036Z,35.79
2017-06-02T10:37:57.525Z,36.16
2017-06-02T10:40:23.005Z,34.29
2017-06-02T10:42:40.001Z,35.93
2017-06-02T10:44:56.955Z,34.16
2017-06-02T10:47:22.440Z,34.56
2017-06-02T10:49:47.890Z,35.75
2017-06-02T10:52:13.289Z,36.17
2017-06-02T10:54:38.710Z,35.97
2017-06-02T10:57:04.135Z,36.28
2017-06-02T10:59:29.492Z,36.75
2017-06-02T11:01:54.900Z,36.48
2017-06-02T11:04:20.295Z,36.33
2017-06-02T11:06:45.716Z,36.03
2017-06-02T11:08:47.936Z,35.91
2017-06-02T11:11:13.376Z,35.47
2017-06-02T11:13:38.817Z,35.34
2017-06-02T11:16:04.211Z,34.86
2017-06-02T11:18:06.017Z,35.05
2017-06-02T11:20:31.442Z,35.88
2017-06-02T11:22:56.804Z,35.39
2017-06-02T11:25:13.706Z,35.69
2017-06-02T11:27:39.031Z,35.35
2017-06-02T11:30:04.354Z,35.13
2017-06-02T11:32:06.549Z,35.1
2017-06-02T11:34:23.435Z,34.44
2017-06-02T11:36:48.798Z,35.47
2017-06-02T11:39:14.123Z,33.38
2017-06-02T11:41:39.464Z,34.09
2017-06-02T11:44:04.797Z,34.81
2017-06-02T11:46:30.109Z,35.76
2017-06-02T11:48:46.923Z,33.72
2017-06-02T11:51:13.203Z,33.05
2017-06-02T11:53:15.358Z,33.76
2017-06-02T11:55:40.676Z,34.02
2017-06-02T11:58:05.944Z,34.71
2017-06-02T12:00:08.126Z,34.56
2017-06-02T12:02:34.462Z,34.6
2017-06-02T12:04:59.738Z,34.65
2017-06-02T12:07:24.972Z,34.88
2017-06-02T12:09:50.208Z,34.35
2017-06-02T12:12:15.438Z,33.53
2017-06-02T12:14:40.663Z,33.22
2017-06-02T12:17:05.893Z,33.88
2017-06-02T12:19:31.114Z,34.43
2017-06-02T12:21:56.356Z,33.85
2017-06-02T12:24:13.052Z,33.77
2017-06-02T12:26:15.199Z,33.76
2017-06-02T12:28:40.433Z,33.75
2017-06-02T12:30:57.120Z,33.66
2017-06-02T12:33:22.292Z,34.07
2017-06-02T12:35:47.502Z,34.03
2017-06-02T12:38:12.693Z,34.13
2017-06-02T12:40:37.889Z,33.38
2017-06-02T12:42:54.576Z,32.91
2017-06-02T12:45:19.743Z,33.28
2017-06-02T12:47:44.908Z,33.28
2017-06-02T12:50:10.043Z,33.01
2017-06-02T12:52:35.124Z,32.72
2017-06-02T12:55:00.294Z,32.59
2017-06-02T12:57:25.433Z,32.95
2017-06-02T12:59:50.589Z,33.13
2017-06-02T13:02:15.731Z,32.82
2017-06-02T13:04:40.821Z,33.29
2017-06-02T13:06:34.461Z,32.82
2017-06-02T13:08:45.195Z,33.13
2017-06-02T13:11:10.334Z,33.38
2017-06-02T13:13:35.450Z,33.2
2017-06-02T13:16:00.572Z,33.4
2017-06-02T13:18:25.699Z,33.28
2017-06-02T13:20:25.318Z,33.32
2017-06-02T13:22:41.942Z,33.72
2017-06-02T13:25:07.017Z,33.75
2017-06-02T13:27:23.659Z,33.88
2017-06-02T13:29:48.770Z,33.89
2017-06-02T13:32:05.388Z,33.98
2017-06-02T13:34:31.551Z,33.55
2017-06-02T13:36:56.692Z,32.81
2017-06-02T13:39:06.977Z,33.36
2017-06-02T13:41:23.632Z,33.84
2017-06-02T13:43:34.333Z,34.26
2017-06-02T13:45:59.517Z,33.66
2017-06-02T13:48:24.645Z,34.25
2017-06-02T13:50:49.818Z,34.26
2017-06-02T13:53:06.472Z,34.86
2017-06-02T13:55:00.114Z,35.04
2017-06-02T13:57:10.894Z,34.35
2017-06-02T13:59:36.153Z,33.79
2017-06-02T14:01:38.271Z,34.58
2017-06-02T14:04:03.521Z,33.5
2017-06-02T14:06:28.731Z,33.54
2017-06-02T14:08:54.856Z,33.23
2017-06-02T14:11:20.038Z,34.11
2017-06-02T14:13:46.209Z,33.76
2017-06-02T14:16:11.407Z,34.11
2017-06-02T14:18:22.169Z,33.31
2017-06-02T14:20:47.389Z,32.98
2017-06-02T14:22:58.098Z,32.78
2017-06-02T14:25:23.233Z,32.82
2017-06-02T14:27:48.332Z,32.38
2017-06-02T14:30:13.449Z,32.76
2017-06-02T14:32:38.551Z,32.57
2017-06-02T14:35:03.643Z,32.07
2017-06-02T14:37:28.694Z,31.98
2017-06-02T14:39:39.405Z,32.09
2017-06-02T14:42:04.505Z,32.38
2017-06-02T14:44:21.034Z,32
2017-06-02T14:46:46.068Z,32.26
2017-06-02T14:49:11.088Z,31.81
2017-06-02T14:51:36.101Z,30.59
2017-06-02T14:54:01.095Z,30.44
2017-06-02T14:56:26.082Z,30.26
2017-06-02T14:58:42.545Z,29.73
2017-06-02T15:01:07.440Z,30.01
2017-06-02T15:03:23.861Z,29.37
2017-06-02T15:05:48.712Z,28.8
2017-06-02T15:08:13.554Z,29.07
2017-06-02T15:10:38.414Z,29
2017-06-02T15:13:03.249Z,28.74
2017-06-02T15:15:28.030Z,28.43
2017-06-02T15:17:52.806Z,29.07
2017-06-02T15:20:17.594Z,29
2017-06-02T15:22:42.390Z,29.28
2017-06-02T15:25:07.178Z,29.4
2017-06-02T15:27:32.020Z,29.03
2017-06-02T15:29:56.782Z,28.57
2017-06-02T15:32:21.538Z,28.46
2017-06-02T15:34:46.295Z,27.78
2017-06-02T15:37:11.028Z,27.47
2017-06-02T15:39:35.874Z,27.43
2017-06-02T15:42:02.403Z,27.9
2017-06-02T15:44:27.249Z,28.3
2017-06-02T15:46:51.997Z,28.23
2017-06-02T15:49:17.193Z,28.15
2017-06-02T15:51:42.866Z,28.3
2017-06-02T15:54:07.739Z,28.18
2017-06-02T15:56:32.373Z,28.12
2017-06-02T15:58:57.983Z,28.25
2017-06-02T16:01:22.672Z,27.63
2017-06-02T16:03:47.295Z,27.34
2017-06-02T16:06:12.964Z,27.79
2017-06-02T16:08:37.560Z,27.91
2017-06-02T16:11:02.222Z,27.95
2017-06-02T16:13:26.853Z,27.95
2017-06-02T16:15:51.426Z,28.35
2017-06-02T16:18:16.092Z,28.1
2017-06-02T16:20:41.739Z,27.73
2017-06-02T16:23:06.397Z,26.98
2017-06-02T16:25:31.029Z,27.41
2017-06-02T16:27:41.608Z,27.28
2017-06-02T16:30:06.235Z,27.19
2017-06-02T16:32:30.805Z,26.97
2017-06-02T16:34:55.363Z,27.07
2017-06-02T16:37:20.969Z,27.35
2017-06-02T16:39:45.596Z,27.45
2017-06-02T16:42:10.178Z,27.66
2017-06-02T16:44:26.936Z,26.96
2017-06-02T16:46:51.753Z,27.05
2017-06-02T16:52:11.662Z,27.76
2017-06-02T16:57:35.560Z,28.23
2017-06-02T17:02:30.591Z,28.3
2017-06-02T17:04:55.240Z,28.38
2017-06-02T17:07:19.980Z,28.18
2017-06-02T17:09:44.684Z,28.23
2017-06-02T17:12:10.503Z,28.19
2017-06-02T17:14:35.181Z,28.52
2017-06-02T17:16:59.828Z,28.43
2017-06-02T17:19:25.480Z,28.3
2017-06-02T17:24:33.996Z,27.94
2017-06-02T17:27:01.037Z,28.19
2017-06-02T17:29:25.659Z,27.88
2017-06-02T17:31:50.295Z,27.67
2017-06-02T17:34:06.474Z,27.4
2017-06-02T17:36:31.069Z,27.55
2017-06-02T17:38:55.614Z,27.97
2017-06-02T17:41:20.242Z,28.04
2017-06-02T17:43:44.975Z,28.18
2017-06-02T17:45:55.521Z,28.25
2017-06-02T17:48:11.822Z,28.34
2017-06-02T17:50:36.516Z,28.53
2017-06-02T17:53:01.210Z,28.67
2017-06-02T17:55:26.013Z,28.41
2017-06-02T17:57:36.618Z,28.55
2017-06-02T18:00:01.376Z,26.92
2017-06-02T18:02:26.074Z,26.7
2017-06-02T18:04:42.265Z,26.78
2017-06-02T18:07:06.967Z,27.29
2017-06-02T18:09:38.523Z,27.11
2017-06-02T18:12:03.219Z,26.82
2017-06-02T18:14:28.835Z,26.85
2017-06-02T18:16:22.370Z,26.59
2017-06-02T18:18:46.993Z,26.45
2017-06-02T18:21:12.512Z,26.76
2017-06-02T18:23:37.107Z,27.23
2017-06-02T18:26:01.723Z,27.19
2017-06-02T18:28:26.294Z,27.44
2017-06-02T18:30:50.890Z,27.3
2017-06-02T18:33:15.485Z,27.16
2017-06-02T18:35:40.075Z,27.44
2017-06-02T18:38:04.667Z,27.43
2017-06-02T18:40:29.262Z,27.57
2017-06-02T18:42:53.857Z,27.35
2017-06-02T18:45:03.942Z,27.4
2017-06-02T18:47:20.106Z,26.97
2017-06-02T18:49:44.723Z,26.98
2017-06-02T18:52:09.294Z,27.2
2017-06-02T18:54:26.410Z,26.85
2017-06-02T18:56:27.929Z,26.98
2017-06-02T18:58:44.170Z,27.22
2017-06-02T19:01:08.863Z,27.34
2017-06-02T19:03:33.453Z,27.34
2017-06-02T19:05:58.052Z,27.34
2017-06-02T19:08:22.638Z,27.23
2017-06-02T19:10:38.729Z,27.03
2017-06-02T19:12:40.260Z,26.96
2017-06-02T19:14:41.710Z,27.01
2017-06-02T19:17:06.233Z,27.03
2017-06-02T19:19:22.326Z,26.97
2017-06-02T19:21:38.430Z,27.08
2017-06-02T19:24:02.914Z,27.07
2017-06-02T19:26:27.408Z,27.2
2017-06-02T19:28:28.870Z,27.1
2017-06-02T19:30:45.585Z,27.19
2017-06-02T19:33:09.547Z,27
2017-06-02T19:35:25.641Z,26.97
2017-06-02T19:37:50.240Z,27.03
2017-06-02T19:40:14.827Z,27
2017-06-02T19:42:30.923Z,26.93
2017-06-02T19:44:55.417Z,27.04
2017-06-02T19:46:56.898Z,26.83
2017-06-02T19:49:21.455Z,26.91
2017-06-02T19:51:45.889Z,26.98
2017-06-02T19:54:01.943Z,26.97
2017-06-02T19:56:09.480Z,26.98
2017-06-02T19:58:34.027Z,26.82
2017-06-02T20:00:58.620Z,26.68
2017-06-02T20:03:23.119Z,26.74
2017-06-02T20:05:22.212Z,26.73
2017-06-02T20:07:46.805Z,26.79
2017-06-02T20:10:02.897Z,26.82
2017-06-02T20:12:18.991Z,26.93
2017-06-02T20:14:43.588Z,26.98
2017-06-02T20:17:08.181Z,27.04
2017-06-02T20:19:32.775Z,26.88
2017-06-02T20:21:57.268Z,26.66
2017-06-02T20:24:21.861Z,26.7
2017-06-02T20:26:37.951Z,26.49
2017-06-02T20:29:02.551Z,26.45
2017-06-02T20:31:27.142Z,26.31
2017-06-02T20:33:43.274Z,26.31
2017-06-02T20:36:07.831Z,26.34
2017-06-02T20:38:32.322Z,26.49
2017-06-02T20:40:33.801Z,26.61
2017-06-02T20:42:36.011Z,26.39
2017-06-02T20:45:00.538Z,26.34
2017-06-02T20:46:53.549Z,26.3
2017-06-02T20:49:18.083Z,26.15
2017-06-02T20:51:28.088Z,26.19
2017-06-02T20:53:44.126Z,26.19
2017-06-02T20:56:09.030Z,26.23
2017-06-02T20:58:33.522Z,26.07
2017-06-02T21:00:58.010Z,25.88
2017-06-02T21:03:08.091Z,25.83
2017-06-02T21:05:24.158Z,25.77
2017-06-02T21:07:48.648Z,25.59
2017-06-02T21:10:13.145Z,25.58
2017-06-02T21:12:37.632Z,25.56
2017-06-02T21:14:53.624Z,25.68
2017-06-02T21:17:18.011Z,25.66
2017-06-02T21:19:34.004Z,25.62
2017-06-02T21:21:58.500Z,25.76
2017-06-02T21:24:22.878Z,25.71
2017-06-02T21:26:07.265Z,25.7
2017-06-02T21:28:31.729Z,25.58
2017-06-02T21:30:56.219Z,25.4
2017-06-02T21:33:20.612Z,25.63
2017-06-02T21:35:44.993Z,25.43
2017-06-02T21:38:00.992Z,25.62
2017-06-02T21:40:25.481Z,25.74
2017-06-02T21:42:41.473Z,25.74
2017-06-02T21:45:05.970Z,25.81
2017-06-02T21:47:30.460Z,26.01
2017-06-02T21:49:54.952Z,25.93
2017-06-02T21:52:10.943Z,25.83
2017-06-02T21:54:26.938Z,25.81
2017-06-02T21:56:28.431Z,25.83
2017-06-02T21:58:52.976Z,25.78
2017-06-02T22:01:17.470Z,25.8
2017-06-02T22:03:41.962Z,25.26
2017-06-02T22:05:57.954Z,25.56
2017-06-02T22:08:22.442Z,25.34
2017-06-02T22:10:46.936Z,25.03
2017-06-02T22:13:11.326Z,25.15
2017-06-02T22:15:12.779Z,25.22
2017-06-02T22:17:14.256Z,25.03
2017-06-02T22:19:38.717Z,25.03
2017-06-02T22:22:03.109Z,25.06
2017-06-02T22:24:19.102Z,25.11
2017-06-02T22:26:43.594Z,24.97
2017-06-02T22:29:07.983Z,24.97
2017-06-02T22:30:49.426Z,24.93
2017-06-02T22:33:13.851Z,24.31
2017-06-02T22:35:29.846Z,24.5
2017-06-02T22:37:45.734Z,24.48
2017-06-02T22:40:10.120Z,24.41
2017-06-02T22:42:11.575Z,24.03
2017-06-02T22:44:35.963Z,23.73
2017-06-02T22:47:00.353Z,23.99
2017-06-02T22:49:24.740Z,23.77
2017-06-02T22:51:17.725Z,23.55
2017-06-02T22:53:42.084Z,23.95
2017-06-02T22:56:06.473Z,24.07
2017-06-02T22:58:30.763Z,24.32
2017-06-02T23:00:55.147Z,24.31
2017-06-02T23:03:11.040Z,24.46
2017-06-02T23:05:35.425Z,24.5
2017-06-02T23:07:59.717Z,24.32
2017-06-02T23:10:24.105Z,24.44
2017-06-02T23:12:48.492Z,24.44
2017-06-02T23:14:58.480Z,24.46
2017-06-02T23:17:22.830Z,24.43
2017-06-02T23:19:47.221Z,24.37
2017-06-02T23:22:11.612Z,24.51
2017-06-02T23:24:27.504Z,24.44
2017-06-02T23:26:51.896Z,24.63
2017-06-02T23:29:07.780Z,24.44
2017-06-02T23:31:15.274Z,24.47
2017-06-02T23:33:39.553Z,24.36
2017-06-02T23:36:03.843Z,23.66
2017-06-02T23:38:28.132Z,24.03
2017-06-02T23:40:35.621Z,24.24
2017-06-02T23:42:59.914Z,24.07
2017-06-02T23:45:24.198Z,24
2017-06-02T23:47:48.481Z,24.09
2017-06-02T23:50:12.773Z,24.24
2017-06-02T23:52:37.158Z,24.29
2017-06-02T23:55:01.553Z,24.26
2017-06-02T23:57:25.935Z,24.32
2017-06-02T23:59:50.332Z,24.36
